sensor_id;sensor_type;location;lat;lon;timestamp;temperature;humidity
30148;DHT22;16960;49.404;8.248;2023-08-17T00:01:41;24.40;62.70
30148;DHT22;16960;49.404;8.248;2023-08-17T00:04:08;24.30;62.90
30148;DHT22;16960;49.404;8.248;2023-08-17T00:06:35;24.30;63.00
30148;DHT22;16960;49.404;8.248;2023-08-17T00:09:01;24.20;63.00
30148;DHT22;16960;49.404;8.248;2023-08-17T00:11:29;24.10;63.20
30148;DHT22;16960;49.404;8.248;2023-08-17T00:13:56;24.10;63.30
30148;DHT22;16960;49.404;8.248;2023-08-17T00:16:23;24.10;63.40
30148;DHT22;16960;49.404;8.248;2023-08-17T00:18:51;24.00;63.50
30148;DHT22;16960;49.404;8.248;2023-08-17T00:21:19;23.90;63.70
30148;DHT22;16960;49.404;8.248;2023-08-17T00:23:46;23.80;63.90
30148;DHT22;16960;49.404;8.248;2023-08-17T00:26:13;23.80;64.00
30148;DHT22;16960;49.404;8.248;2023-08-17T00:28:40;23.70;64.10
30148;DHT22;16960;49.404;8.248;2023-08-17T00:31:07;23.60;64.20
30148;DHT22;16960;49.404;8.248;2023-08-17T00:33:34;23.60;64.30
30148;DHT22;16960;49.404;8.248;2023-08-17T00:36:03;23.60;64.50
30148;DHT22;16960;49.404;8.248;2023-08-17T00:38:30;23.50;64.70
30148;DHT22;16960;49.404;8.248;2023-08-17T00:40:57;23.50;64.80
30148;DHT22;16960;49.404;8.248;2023-08-17T00:43:24;23.40;64.90
30148;DHT22;16960;49.404;8.248;2023-08-17T00:45:51;23.40;65.00
30148;DHT22;16960;49.404;8.248;2023-08-17T00:48:18;23.40;65.00
30148;DHT22;16960;49.404;8.248;2023-08-17T00:50:48;23.30;65.10
30148;DHT22;16960;49.404;8.248;2023-08-17T00:53:18;23.30;65.30
30148;DHT22;16960;49.404;8.248;2023-08-17T00:55:46;23.30;65.20
30148;DHT22;16960;49.404;8.248;2023-08-17T00:58:14;23.30;65.20
30148;DHT22;16960;49.404;8.248;2023-08-17T01:00:41;23.20;65.20
30148;DHT22;16960;49.404;8.248;2023-08-17T01:03:08;23.20;65.40
30148;DHT22;16960;49.404;8.248;2023-08-17T01:05:35;23.20;65.20
30148;DHT22;16960;49.404;8.248;2023-08-17T01:08:03;23.20;65.20
30148;DHT22;16960;49.404;8.248;2023-08-17T01:10:41;23.30;65.10
30148;DHT22;16960;49.404;8.248;2023-08-17T01:13:14;23.20;64.90
30148;DHT22;16960;49.404;8.248;2023-08-17T01:15:46;23.30;65.00
30148;DHT22;16960;49.404;8.248;2023-08-17T01:18:20;23.30;65.00
30148;DHT22;16960;49.404;8.248;2023-08-17T01:20:49;23.30;64.80
30148;DHT22;16960;49.404;8.248;2023-08-17T01:23:17;23.30;64.70
30148;DHT22;16960;49.404;8.248;2023-08-17T01:25:45;23.30;64.60
30148;DHT22;16960;49.404;8.248;2023-08-17T01:28:12;23.40;64.50
30148;DHT22;16960;49.404;8.248;2023-08-17T01:30:44;23.30;64.50
30148;DHT22;16960;49.404;8.248;2023-08-17T01:33:16;23.30;64.50
30148;DHT22;16960;49.404;8.248;2023-08-17T01:35:51;23.30;64.60
30148;DHT22;16960;49.404;8.248;2023-08-17T01:38:23;23.20;64.40
30148;DHT22;16960;49.404;8.248;2023-08-17T01:40:52;23.20;64.30
30148;DHT22;16960;49.404;8.248;2023-08-17T01:43:20;23.30;64.40
30148;DHT22;16960;49.404;8.248;2023-08-17T01:45:47;23.20;64.20
30148;DHT22;16960;49.404;8.248;2023-08-17T01:48:14;23.30;64.30
30148;DHT22;16960;49.404;8.248;2023-08-17T01:50:41;23.30;64.30
30148;DHT22;16960;49.404;8.248;2023-08-17T01:53:08;23.40;64.10
30148;DHT22;16960;49.404;8.248;2023-08-17T01:55:36;23.30;64.10
30148;DHT22;16960;49.404;8.248;2023-08-17T01:58:03;23.40;64.80
30148;DHT22;16960;49.404;8.248;2023-08-17T02:00:30;23.40;64.00
30148;DHT22;16960;49.404;8.248;2023-08-17T02:02:57;23.40;63.90
30148;DHT22;16960;49.404;8.248;2023-08-17T02:05:24;23.40;63.80
30148;DHT22;16960;49.404;8.248;2023-08-17T02:07:53;23.40;63.70
30148;DHT22;16960;49.404;8.248;2023-08-17T02:10:20;23.40;63.60
30148;DHT22;16960;49.404;8.248;2023-08-17T02:12:49;23.30;63.60
30148;DHT22;16960;49.404;8.248;2023-08-17T02:15:16;23.30;63.70
30148;DHT22;16960;49.404;8.248;2023-08-17T02:17:43;23.30;63.60
30148;DHT22;16960;49.404;8.248;2023-08-17T02:20:10;23.30;63.60
30148;DHT22;16960;49.404;8.248;2023-08-17T02:22:38;23.30;63.60
30148;DHT22;16960;49.404;8.248;2023-08-17T02:25:06;23.20;63.60
30148;DHT22;16960;49.404;8.248;2023-08-17T02:27:33;23.20;63.70
30148;DHT22;16960;49.404;8.248;2023-08-17T02:30:01;23.20;63.70
30148;DHT22;16960;49.404;8.248;2023-08-17T02:32:29;23.20;63.60
30148;DHT22;16960;49.404;8.248;2023-08-17T02:34:56;23.20;63.50
30148;DHT22;16960;49.404;8.248;2023-08-17T02:37:22;23.20;63.50
30148;DHT22;16960;49.404;8.248;2023-08-17T02:39:49;23.20;63.60
30148;DHT22;16960;49.404;8.248;2023-08-17T02:42:16;23.20;63.60
30148;DHT22;16960;49.404;8.248;2023-08-17T02:44:43;23.20;63.70
30148;DHT22;16960;49.404;8.248;2023-08-17T02:47:11;23.20;63.50
30148;DHT22;16960;49.404;8.248;2023-08-17T02:49:38;23.20;63.50
30148;DHT22;16960;49.404;8.248;2023-08-17T02:52:05;23.30;63.40
30148;DHT22;16960;49.404;8.248;2023-08-17T02:54:32;23.30;63.30
30148;DHT22;16960;49.404;8.248;2023-08-17T02:56:59;23.30;63.30
30148;DHT22;16960;49.404;8.248;2023-08-17T02:59:26;23.30;63.30
30148;DHT22;16960;49.404;8.248;2023-08-17T03:01:53;23.30;63.10
30148;DHT22;16960;49.404;8.248;2023-08-17T03:04:23;23.30;63.00
30148;DHT22;16960;49.404;8.248;2023-08-17T03:06:49;23.30;63.00
30148;DHT22;16960;49.404;8.248;2023-08-17T03:09:16;23.30;63.10
30148;DHT22;16960;49.404;8.248;2023-08-17T03:11:43;23.30;62.80
30148;DHT22;16960;49.404;8.248;2023-08-17T03:14:10;23.30;62.90
30148;DHT22;16960;49.404;8.248;2023-08-17T03:16:37;23.30;62.80
30148;DHT22;16960;49.404;8.248;2023-08-17T03:19:04;23.20;62.80
30148;DHT22;16960;49.404;8.248;2023-08-17T03:21:34;23.30;62.90
30148;DHT22;16960;49.404;8.248;2023-08-17T03:24:01;23.30;62.60
30148;DHT22;16960;49.404;8.248;2023-08-17T03:26:28;23.30;62.60
30148;DHT22;16960;49.404;8.248;2023-08-17T03:28:55;23.30;62.70
30148;DHT22;16960;49.404;8.248;2023-08-17T03:31:22;23.20;62.60
30148;DHT22;16960;49.404;8.248;2023-08-17T03:33:49;23.20;62.70
30148;DHT22;16960;49.404;8.248;2023-08-17T03:36:16;23.20;62.80
30148;DHT22;16960;49.404;8.248;2023-08-17T03:38:44;23.20;62.80
30148;DHT22;16960;49.404;8.248;2023-08-17T03:41:11;23.20;62.70
30148;DHT22;16960;49.404;8.248;2023-08-17T03:43:38;23.20;62.70
30148;DHT22;16960;49.404;8.248;2023-08-17T03:46:05;23.20;62.70
30148;DHT22;16960;49.404;8.248;2023-08-17T03:48:32;23.20;62.70
30148;DHT22;16960;49.404;8.248;2023-08-17T03:50:59;23.20;62.70
30148;DHT22;16960;49.404;8.248;2023-08-17T03:53:27;23.20;62.70
30148;DHT22;16960;49.404;8.248;2023-08-17T03:55:55;23.20;62.70
30148;DHT22;16960;49.404;8.248;2023-08-17T03:58:22;23.20;62.70
30148;DHT22;16960;49.404;8.248;2023-08-17T04:00:52;23.20;62.70
30148;DHT22;16960;49.404;8.248;2023-08-17T04:03:19;23.20;62.70
30148;DHT22;16960;49.404;8.248;2023-08-17T04:05:46;23.20;62.60
30148;DHT22;16960;49.404;8.248;2023-08-17T04:08:13;23.20;62.60
30148;DHT22;16960;49.404;8.248;2023-08-17T04:10:40;23.20;62.60
30148;DHT22;16960;49.404;8.248;2023-08-17T04:13:08;23.20;62.60
30148;DHT22;16960;49.404;8.248;2023-08-17T04:15:35;23.20;62.60
30148;DHT22;16960;49.404;8.248;2023-08-17T04:18:02;23.20;62.60
30148;DHT22;16960;49.404;8.248;2023-08-17T04:20:29;23.20;62.60
30148;DHT22;16960;49.404;8.248;2023-08-17T04:22:56;23.20;62.60
30148;DHT22;16960;49.404;8.248;2023-08-17T04:25:23;23.20;62.50
30148;DHT22;16960;49.404;8.248;2023-08-17T04:27:50;23.20;62.50
30148;DHT22;16960;49.404;8.248;2023-08-17T04:30:18;23.20;62.50
30148;DHT22;16960;49.404;8.248;2023-08-17T04:32:45;23.20;62.50
30148;DHT22;16960;49.404;8.248;2023-08-17T04:35:17;23.20;62.50
30148;DHT22;16960;49.404;8.248;2023-08-17T04:37:44;23.20;62.50
30148;DHT22;16960;49.404;8.248;2023-08-17T04:40:12;23.10;62.50
30148;DHT22;16960;49.404;8.248;2023-08-17T04:42:39;23.20;62.70
30148;DHT22;16960;49.404;8.248;2023-08-17T04:45:07;23.10;62.60
30148;DHT22;16960;49.404;8.248;2023-08-17T04:47:36;23.10;62.60
30148;DHT22;16960;49.404;8.248;2023-08-17T04:50:03;23.10;62.60
30148;DHT22;16960;49.404;8.248;2023-08-17T04:52:30;23.10;62.70
30148;DHT22;16960;49.404;8.248;2023-08-17T04:54:57;23.10;62.80
30148;DHT22;16960;49.404;8.248;2023-08-17T04:57:24;23.10;62.80
30148;DHT22;16960;49.404;8.248;2023-08-17T04:59:51;23.10;62.90
30148;DHT22;16960;49.404;8.248;2023-08-17T05:02:18;23.00;62.80
30148;DHT22;16960;49.404;8.248;2023-08-17T05:04:47;23.00;62.80
30148;DHT22;16960;49.404;8.248;2023-08-17T05:07:14;23.00;63.00
30148;DHT22;16960;49.404;8.248;2023-08-17T05:09:41;23.00;63.10
30148;DHT22;16960;49.404;8.248;2023-08-17T05:12:08;23.00;63.30
30148;DHT22;16960;49.404;8.248;2023-08-17T05:14:35;22.90;63.60
30148;DHT22;16960;49.404;8.248;2023-08-17T05:17:02;22.90;63.80
30148;DHT22;16960;49.404;8.248;2023-08-17T05:19:29;22.90;64.10
30148;DHT22;16960;49.404;8.248;2023-08-17T05:21:58;22.90;64.10
30148;DHT22;16960;49.404;8.248;2023-08-17T05:24:24;22.90;64.20
30148;DHT22;16960;49.404;8.248;2023-08-17T05:26:51;22.80;64.20
30148;DHT22;16960;49.404;8.248;2023-08-17T05:29:18;22.90;64.40
30148;DHT22;16960;49.404;8.248;2023-08-17T05:31:45;22.80;64.40
30148;DHT22;16960;49.404;8.248;2023-08-17T05:34:12;22.80;64.80
30148;DHT22;16960;49.404;8.248;2023-08-17T05:36:39;22.80;65.00
30148;DHT22;16960;49.404;8.248;2023-08-17T05:39:08;22.70;65.20
30148;DHT22;16960;49.404;8.248;2023-08-17T05:41:35;22.70;65.30
30148;DHT22;16960;49.404;8.248;2023-08-17T05:44:02;22.70;65.40
30148;DHT22;16960;49.404;8.248;2023-08-17T05:46:29;22.70;65.50
30148;DHT22;16960;49.404;8.248;2023-08-17T05:48:56;22.70;65.50
30148;DHT22;16960;49.404;8.248;2023-08-17T05:51:24;22.70;65.50
30148;DHT22;16960;49.404;8.248;2023-08-17T05:53:51;22.70;65.80
30148;DHT22;16960;49.404;8.248;2023-08-17T05:56:19;22.70;65.80
30148;DHT22;16960;49.404;8.248;2023-08-17T05:58:46;22.70;66.00
30148;DHT22;16960;49.404;8.248;2023-08-17T06:01:14;22.80;65.80
30148;DHT22;16960;49.404;8.248;2023-08-17T06:03:41;22.80;65.80
30148;DHT22;16960;49.404;8.248;2023-08-17T06:06:08;22.80;66.00
30148;DHT22;16960;49.404;8.248;2023-08-17T06:08:35;22.80;66.10
30148;DHT22;16960;49.404;8.248;2023-08-17T06:11:02;22.80;65.80
30148;DHT22;16960;49.404;8.248;2023-08-17T06:13:31;22.90;65.80
30148;DHT22;16960;49.404;8.248;2023-08-17T06:15:58;23.00;65.60
30148;DHT22;16960;49.404;8.248;2023-08-17T06:18:25;23.00;65.40
30148;DHT22;16960;49.404;8.248;2023-08-17T06:20:52;23.00;65.30
30148;DHT22;16960;49.404;8.248;2023-08-17T06:23:19;23.10;65.40
30148;DHT22;16960;49.404;8.248;2023-08-17T06:25:46;23.10;65.30
30148;DHT22;16960;49.404;8.248;2023-08-17T06:28:13;23.20;65.20
30148;DHT22;16960;49.404;8.248;2023-08-17T06:30:41;23.20;65.00
30148;DHT22;16960;49.404;8.248;2023-08-17T06:33:08;23.20;65.10
30148;DHT22;16960;49.404;8.248;2023-08-17T06:35:35;23.20;64.90
30148;DHT22;16960;49.404;8.248;2023-08-17T06:38:02;23.20;64.90
30148;DHT22;16960;49.404;8.248;2023-08-17T06:40:29;23.20;64.90
30148;DHT22;16960;49.404;8.248;2023-08-17T06:42:56;23.20;64.90
30148;DHT22;16960;49.404;8.248;2023-08-17T06:45:23;23.20;64.80
30148;DHT22;16960;49.404;8.248;2023-08-17T06:47:51;23.20;64.70
30148;DHT22;16960;49.404;8.248;2023-08-17T06:50:18;23.30;64.80
30148;DHT22;16960;49.404;8.248;2023-08-17T06:52:45;23.20;64.70
30148;DHT22;16960;49.404;8.248;2023-08-17T06:55:12;23.30;64.90
30148;DHT22;16960;49.404;8.248;2023-08-17T06:57:40;23.30;64.80
30148;DHT22;16960;49.404;8.248;2023-08-17T07:00:07;23.30;64.70
30148;DHT22;16960;49.404;8.248;2023-08-17T07:02:36;23.40;64.70
30148;DHT22;16960;49.404;8.248;2023-08-17T07:05:05;23.40;64.60
30148;DHT22;16960;49.404;8.248;2023-08-17T07:07:33;23.40;64.60
30148;DHT22;16960;49.404;8.248;2023-08-17T07:10:00;23.40;64.50
30148;DHT22;16960;49.404;8.248;2023-08-17T07:12:28;23.40;64.40
30148;DHT22;16960;49.404;8.248;2023-08-17T07:14:55;23.40;64.50
30148;DHT22;16960;49.404;8.248;2023-08-17T07:17:22;23.40;64.50
30148;DHT22;16960;49.404;8.248;2023-08-17T07:19:49;23.50;64.50
30148;DHT22;16960;49.404;8.248;2023-08-17T07:22:17;23.50;64.70
30148;DHT22;16960;49.404;8.248;2023-08-17T07:24:44;23.50;64.60
30148;DHT22;16960;49.404;8.248;2023-08-17T07:27:11;23.50;64.60
30148;DHT22;16960;49.404;8.248;2023-08-17T07:29:38;23.50;64.60
30148;DHT22;16960;49.404;8.248;2023-08-17T07:32:05;23.50;64.40
30148;DHT22;16960;49.404;8.248;2023-08-17T07:34:31;23.50;64.40
30148;DHT22;16960;49.404;8.248;2023-08-17T07:36:58;23.50;64.50
30148;DHT22;16960;49.404;8.248;2023-08-17T07:39:27;23.50;64.50
30148;DHT22;16960;49.404;8.248;2023-08-17T07:41:53;23.60;64.60
30148;DHT22;16960;49.404;8.248;2023-08-17T07:44:20;23.50;64.40
30148;DHT22;16960;49.404;8.248;2023-08-17T07:46:47;23.60;64.30
30148;DHT22;16960;49.404;8.248;2023-08-17T07:49:14;23.60;64.40
30148;DHT22;16960;49.404;8.248;2023-08-17T07:51:41;23.60;64.30
30148;DHT22;16960;49.404;8.248;2023-08-17T07:54:08;23.60;64.20
30148;DHT22;16960;49.404;8.248;2023-08-17T07:56:36;23.60;64.20
30148;DHT22;16960;49.404;8.248;2023-08-17T07:59:03;23.60;64.30
30148;DHT22;16960;49.404;8.248;2023-08-17T08:01:30;23.70;64.50
30148;DHT22;16960;49.404;8.248;2023-08-17T08:03:57;23.70;64.50
30148;DHT22;16960;49.404;8.248;2023-08-17T08:06:24;23.70;64.50
30148;DHT22;16960;49.404;8.248;2023-08-17T08:08:51;23.70;64.50
30148;DHT22;16960;49.404;8.248;2023-08-17T08:11:18;23.80;64.40
30148;DHT22;16960;49.404;8.248;2023-08-17T08:13:46;23.80;64.30
30148;DHT22;16960;49.404;8.248;2023-08-17T08:16:13;23.80;64.50
30148;DHT22;16960;49.404;8.248;2023-08-17T08:18:40;23.80;64.70
30148;DHT22;16960;49.404;8.248;2023-08-17T08:21:07;23.80;64.70
30148;DHT22;16960;49.404;8.248;2023-08-17T08:23:34;23.90;64.60
30148;DHT22;16960;49.404;8.248;2023-08-17T08:26:00;23.90;64.50
30148;DHT22;16960;49.404;8.248;2023-08-17T08:28:27;23.90;64.40
30148;DHT22;16960;49.404;8.248;2023-08-17T08:30:59;23.90;64.40
30148;DHT22;16960;49.404;8.248;2023-08-17T08:33:27;23.90;64.50
30148;DHT22;16960;49.404;8.248;2023-08-17T08:35:54;23.90;64.60
30148;DHT22;16960;49.404;8.248;2023-08-17T08:38:21;24.00;64.50
30148;DHT22;16960;49.404;8.248;2023-08-17T08:40:48;24.00;64.50
30148;DHT22;16960;49.404;8.248;2023-08-17T08:43:15;24.00;64.30
30148;DHT22;16960;49.404;8.248;2023-08-17T08:45:43;24.10;64.30
30148;DHT22;16960;49.404;8.248;2023-08-17T08:48:13;24.10;64.20
30148;DHT22;16960;49.404;8.248;2023-08-17T08:50:42;24.10;64.20
30148;DHT22;16960;49.404;8.248;2023-08-17T08:53:13;24.20;64.30
30148;DHT22;16960;49.404;8.248;2023-08-17T08:55:47;24.20;64.30
30148;DHT22;16960;49.404;8.248;2023-08-17T08:58:15;24.20;64.60
30148;DHT22;16960;49.404;8.248;2023-08-17T09:00:45;24.20;64.40
30148;DHT22;16960;49.404;8.248;2023-08-17T09:03:14;24.20;64.30
30148;DHT22;16960;49.404;8.248;2023-08-17T09:05:45;24.30;64.50
30148;DHT22;16960;49.404;8.248;2023-08-17T09:08:14;24.30;64.40
30148;DHT22;16960;49.404;8.248;2023-08-17T09:10:42;24.30;64.30
30148;DHT22;16960;49.404;8.248;2023-08-17T09:13:10;24.30;64.10
30148;DHT22;16960;49.404;8.248;2023-08-17T09:15:37;24.40;63.90
30148;DHT22;16960;49.404;8.248;2023-08-17T09:18:05;24.40;63.60
30148;DHT22;16960;49.404;8.248;2023-08-17T09:20:38;24.40;63.50
30148;DHT22;16960;49.404;8.248;2023-08-17T09:23:10;24.50;63.50
30148;DHT22;16960;49.404;8.248;2023-08-17T09:25:39;24.50;63.30
30148;DHT22;16960;49.404;8.248;2023-08-17T09:28:07;24.50;63.30
30148;DHT22;16960;49.404;8.248;2023-08-17T09:30:52;24.60;63.00
30148;DHT22;16960;49.404;8.248;2023-08-17T09:33:20;24.60;63.00
30148;DHT22;16960;49.404;8.248;2023-08-17T09:35:49;24.60;62.90
30148;DHT22;16960;49.404;8.248;2023-08-17T09:38:16;24.70;63.00
30148;DHT22;16960;49.404;8.248;2023-08-17T09:40:43;24.70;62.80
30148;DHT22;16960;49.404;8.248;2023-08-17T09:43:11;24.70;62.60
30148;DHT22;16960;49.404;8.248;2023-08-17T09:45:38;24.70;62.40
30148;DHT22;16960;49.404;8.248;2023-08-17T09:48:07;24.70;62.20
30148;DHT22;16960;49.404;8.248;2023-08-17T09:50:34;24.80;62.10
30148;DHT22;16960;49.404;8.248;2023-08-17T09:53:03;24.80;62.00
30148;DHT22;16960;49.404;8.248;2023-08-17T09:55:30;24.80;61.90
30148;DHT22;16960;49.404;8.248;2023-08-17T09:57:58;24.80;61.90
30148;DHT22;16960;49.404;8.248;2023-08-17T10:00:27;24.80;61.80
30148;DHT22;16960;49.404;8.248;2023-08-17T10:02:55;24.90;61.70
30148;DHT22;16960;49.404;8.248;2023-08-17T10:05:22;24.90;61.60
30148;DHT22;16960;49.404;8.248;2023-08-17T10:07:54;24.90;61.60
30148;DHT22;16960;49.404;8.248;2023-08-17T10:10:26;24.90;61.50
30148;DHT22;16960;49.404;8.248;2023-08-17T10:13:01;25.00;61.40
30148;DHT22;16960;49.404;8.248;2023-08-17T10:15:37;25.00;61.30
30148;DHT22;16960;49.404;8.248;2023-08-17T10:18:12;25.00;61.20
30148;DHT22;16960;49.404;8.248;2023-08-17T10:20:42;25.00;61.10
30148;DHT22;16960;49.404;8.248;2023-08-17T10:23:15;25.00;61.10
30148;DHT22;16960;49.404;8.248;2023-08-17T10:25:44;25.00;61.00
30148;DHT22;16960;49.404;8.248;2023-08-17T10:28:12;25.00;60.90
30148;DHT22;16960;49.404;8.248;2023-08-17T10:30:39;25.00;60.90
30148;DHT22;16960;49.404;8.248;2023-08-17T10:33:06;25.10;60.90
30148;DHT22;16960;49.404;8.248;2023-08-17T10:35:36;25.10;60.80
30148;DHT22;16960;49.404;8.248;2023-08-17T10:38:03;25.10;60.80
30148;DHT22;16960;49.404;8.248;2023-08-17T10:40:35;25.10;60.70
30148;DHT22;16960;49.404;8.248;2023-08-17T10:43:04;25.10;60.70
30148;DHT22;16960;49.404;8.248;2023-08-17T10:45:32;25.10;60.60
30148;DHT22;16960;49.404;8.248;2023-08-17T10:50:59;25.10;60.60
30148;DHT22;16960;49.404;8.248;2023-08-17T10:53:27;25.20;60.70
30148;DHT22;16960;49.404;8.248;2023-08-17T10:55:57;25.20;60.50
30148;DHT22;16960;49.404;8.248;2023-08-17T10:58:26;25.20;60.40
30148;DHT22;16960;49.404;8.248;2023-08-17T11:00:57;25.20;60.40
30148;DHT22;16960;49.404;8.248;2023-08-17T11:03:24;25.20;60.30
30148;DHT22;16960;49.404;8.248;2023-08-17T11:05:52;25.30;60.20
30148;DHT22;16960;49.404;8.248;2023-08-17T11:08:22;25.30;60.10
30148;DHT22;16960;49.404;8.248;2023-08-17T11:10:58;25.30;60.10
30148;DHT22;16960;49.404;8.248;2023-08-17T11:13:29;25.30;60.00
30148;DHT22;16960;49.404;8.248;2023-08-17T11:15:58;25.40;59.90
30148;DHT22;16960;49.404;8.248;2023-08-17T11:18:25;25.30;60.00
30148;DHT22;16960;49.404;8.248;2023-08-17T11:20:53;25.40;60.20
30148;DHT22;16960;49.404;8.248;2023-08-17T11:23:20;25.40;60.00
30148;DHT22;16960;49.404;8.248;2023-08-17T11:25:49;25.40;59.90
30148;DHT22;16960;49.404;8.248;2023-08-17T11:28:17;25.40;59.80
30148;DHT22;16960;49.404;8.248;2023-08-17T11:30:52;25.50;59.70
30148;DHT22;16960;49.404;8.248;2023-08-17T11:33:22;25.50;59.60
30148;DHT22;16960;49.404;8.248;2023-08-17T11:35:49;25.60;59.60
30148;DHT22;16960;49.404;8.248;2023-08-17T11:38:16;25.60;59.60
30148;DHT22;16960;49.404;8.248;2023-08-17T11:40:43;25.60;59.50
30148;DHT22;16960;49.404;8.248;2023-08-17T11:43:10;25.60;59.40
30148;DHT22;16960;49.404;8.248;2023-08-17T11:45:37;25.60;59.40
30148;DHT22;16960;49.404;8.248;2023-08-17T11:48:06;25.70;59.30
30148;DHT22;16960;49.404;8.248;2023-08-17T11:50:33;25.70;59.30
30148;DHT22;16960;49.404;8.248;2023-08-17T11:53:00;25.70;59.20
30148;DHT22;16960;49.404;8.248;2023-08-17T11:55:27;25.70;59.20
30148;DHT22;16960;49.404;8.248;2023-08-17T11:57:54;25.70;59.10
30148;DHT22;16960;49.404;8.248;2023-08-17T12:00:22;25.80;59.00
30148;DHT22;16960;49.404;8.248;2023-08-17T12:02:52;25.80;59.00
30148;DHT22;16960;49.404;8.248;2023-08-17T12:05:22;25.80;59.00
30148;DHT22;16960;49.404;8.248;2023-08-17T12:07:50;25.80;59.00
30148;DHT22;16960;49.404;8.248;2023-08-17T12:10:17;25.80;59.00
30148;DHT22;16960;49.404;8.248;2023-08-17T12:12:46;25.80;58.90
30148;DHT22;16960;49.404;8.248;2023-08-17T12:15:13;25.90;58.90
30148;DHT22;16960;49.404;8.248;2023-08-17T12:17:44;25.90;58.90
30148;DHT22;16960;49.404;8.248;2023-08-17T12:20:16;25.90;58.80
30148;DHT22;16960;49.404;8.248;2023-08-17T12:22:45;25.90;58.70
30148;DHT22;16960;49.404;8.248;2023-08-17T12:25:12;25.90;58.70
30148;DHT22;16960;49.404;8.248;2023-08-17T12:27:39;26.00;59.20
30148;DHT22;16960;49.404;8.248;2023-08-17T12:30:13;26.00;59.10
30148;DHT22;16960;49.404;8.248;2023-08-17T12:32:40;26.00;59.10
30148;DHT22;16960;49.404;8.248;2023-08-17T12:35:08;26.00;59.00
30148;DHT22;16960;49.404;8.248;2023-08-17T12:37:34;26.00;59.10
30148;DHT22;16960;49.404;8.248;2023-08-17T12:40:03;26.10;59.00
30148;DHT22;16960;49.404;8.248;2023-08-17T12:42:30;26.10;58.90
30148;DHT22;16960;49.404;8.248;2023-08-17T12:44:57;26.10;58.90
30148;DHT22;16960;49.404;8.248;2023-08-17T12:47:24;26.10;58.90
30148;DHT22;16960;49.404;8.248;2023-08-17T12:49:51;26.10;58.80
30148;DHT22;16960;49.404;8.248;2023-08-17T12:52:19;26.20;58.90
30148;DHT22;16960;49.404;8.248;2023-08-17T12:54:46;26.20;58.80
30148;DHT22;16960;49.404;8.248;2023-08-17T12:57:14;26.20;58.90
30148;DHT22;16960;49.404;8.248;2023-08-17T12:59:41;26.20;58.90
30148;DHT22;16960;49.404;8.248;2023-08-17T13:02:08;26.20;58.80
30148;DHT22;16960;49.404;8.248;2023-08-17T13:04:35;26.20;58.70
30148;DHT22;16960;49.404;8.248;2023-08-17T13:07:02;26.30;58.90
30148;DHT22;16960;49.404;8.248;2023-08-17T13:09:29;26.30;58.90
30148;DHT22;16960;49.404;8.248;2023-08-17T13:11:56;26.30;58.70
30148;DHT22;16960;49.404;8.248;2023-08-17T13:14:25;26.30;58.70
30148;DHT22;16960;49.404;8.248;2023-08-17T13:16:52;26.30;58.70
30148;DHT22;16960;49.404;8.248;2023-08-17T13:19:19;26.30;58.60
30148;DHT22;16960;49.404;8.248;2023-08-17T13:21:45;26.40;58.60
30148;DHT22;16960;49.404;8.248;2023-08-17T13:24:12;26.40;58.60
30148;DHT22;16960;49.404;8.248;2023-08-17T13:26:39;26.40;59.20
30148;DHT22;16960;49.404;8.248;2023-08-17T13:29:06;26.40;58.50
30148;DHT22;16960;49.404;8.248;2023-08-17T13:31:36;26.40;58.50
30148;DHT22;16960;49.404;8.248;2023-08-17T13:34:03;26.40;58.60
30148;DHT22;16960;49.404;8.248;2023-08-17T13:36:30;26.40;58.50
30148;DHT22;16960;49.404;8.248;2023-08-17T13:38:57;26.50;58.40
30148;DHT22;16960;49.404;8.248;2023-08-17T13:41:24;26.40;58.40
30148;DHT22;16960;49.404;8.248;2023-08-17T13:43:51;26.50;58.30
30148;DHT22;16960;49.404;8.248;2023-08-17T13:46:18;26.50;58.30
30148;DHT22;16960;49.404;8.248;2023-08-17T13:48:46;26.50;58.30
30148;DHT22;16960;49.404;8.248;2023-08-17T13:51:13;26.50;58.30
30148;DHT22;16960;49.404;8.248;2023-08-17T13:53:40;26.50;58.30
30148;DHT22;16960;49.404;8.248;2023-08-17T13:56:08;26.60;58.20
30148;DHT22;16960;49.404;8.248;2023-08-17T13:58:35;26.60;58.20
30148;DHT22;16960;49.404;8.248;2023-08-17T14:01:02;26.60;58.10
30148;DHT22;16960;49.404;8.248;2023-08-17T14:03:28;26.60;58.10
30148;DHT22;16960;49.404;8.248;2023-08-17T14:05:57;26.60;58.10
30148;DHT22;16960;49.404;8.248;2023-08-17T14:08:24;26.60;58.10
30148;DHT22;16960;49.404;8.248;2023-08-17T14:10:51;26.60;58.00
30148;DHT22;16960;49.404;8.248;2023-08-17T14:13:18;26.60;58.10
30148;DHT22;16960;49.404;8.248;2023-08-17T14:15:44;26.60;58.10
30148;DHT22;16960;49.404;8.248;2023-08-17T14:18:11;26.70;58.10
30148;DHT22;16960;49.404;8.248;2023-08-17T14:20:38;26.70;58.10
30148;DHT22;16960;49.404;8.248;2023-08-17T14:23:06;26.70;58.10
30148;DHT22;16960;49.404;8.248;2023-08-17T14:25:34;26.60;58.10
30148;DHT22;16960;49.404;8.248;2023-08-17T14:28:04;26.60;58.10
30148;DHT22;16960;49.404;8.248;2023-08-17T14:30:31;26.60;58.10
30148;DHT22;16960;49.404;8.248;2023-08-17T14:32:57;26.60;58.20
30148;DHT22;16960;49.404;8.248;2023-08-17T14:35:25;26.60;58.20
30148;DHT22;16960;49.404;8.248;2023-08-17T14:37:52;26.60;58.20
30148;DHT22;16960;49.404;8.248;2023-08-17T14:40:24;26.60;58.20
30148;DHT22;16960;49.404;8.248;2023-08-17T14:42:51;26.60;58.20
30148;DHT22;16960;49.404;8.248;2023-08-17T14:45:18;26.60;58.20
30148;DHT22;16960;49.404;8.248;2023-08-17T14:47:45;26.60;58.20
30148;DHT22;16960;49.404;8.248;2023-08-17T14:50:12;26.60;58.20
30148;DHT22;16960;49.404;8.248;2023-08-17T14:52:39;26.60;58.30
30148;DHT22;16960;49.404;8.248;2023-08-17T14:55:07;26.60;58.30
30148;DHT22;16960;49.404;8.248;2023-08-17T14:57:35;26.60;58.30
30148;DHT22;16960;49.404;8.248;2023-08-17T15:00:03;26.60;58.30
30148;DHT22;16960;49.404;8.248;2023-08-17T15:02:30;26.60;58.30
30148;DHT22;16960;49.404;8.248;2023-08-17T15:04:57;26.50;58.40
30148;DHT22;16960;49.404;8.248;2023-08-17T15:07:24;26.50;58.30
30148;DHT22;16960;49.404;8.248;2023-08-17T15:09:51;26.50;58.40
30148;DHT22;16960;49.404;8.248;2023-08-17T15:12:18;26.50;58.40
30148;DHT22;16960;49.404;8.248;2023-08-17T15:14:46;26.60;58.40
30148;DHT22;16960;49.404;8.248;2023-08-17T15:17:13;26.60;58.40
30148;DHT22;16960;49.404;8.248;2023-08-17T15:19:40;26.50;58.40
30148;DHT22;16960;49.404;8.248;2023-08-17T15:22:07;26.50;58.40
30148;DHT22;16960;49.404;8.248;2023-08-17T15:24:34;26.50;58.50
30148;DHT22;16960;49.404;8.248;2023-08-17T15:27:01;26.50;58.40
30148;DHT22;16960;49.404;8.248;2023-08-17T15:29:28;26.50;58.50
30148;DHT22;16960;49.404;8.248;2023-08-17T15:31:57;26.50;58.50
30148;DHT22;16960;49.404;8.248;2023-08-17T15:34:23;26.50;58.60
30148;DHT22;16960;49.404;8.248;2023-08-17T15:36:50;26.50;58.60